Chivington, Colorado
Current Conditions -  °F | °C
As of 8:53 AM on Thursday 23 Oct 2014 (Local Time) from KLAA Reporting Station
Clear Clear  
Wind Chill: 54°   Ceiling: Unl
Heat Index: 54°   Visibility: 9mi
Dew Point: 47°   Wind: 7mph
Humidity: 77%   Direction: 270°W
Pressure: 30.16"   Gusts: NA
Location:  38.4343°N, 102.505°W
Report Text: KLAA 231453Z AUTO 27006KT 9SM CLR 12/08 A3016 RMK AO2 SLP191 T01220083 53018
Loading
Personal Weather Stations






























Interactive Weather Map
Tropical Storm Tracking
New forecast layout! Learn more

10-Day Weather Forecast

Advertisements
Track Severe Weather on mobile